Time;durP1;ratioP1;P1;durP2;ratioP2;P2;SDS_P1;SDS_P2;PMS_P1;PMS_P2;Temp;Humidity;BMP_temperature;BMP_pressure;BME280_temperature;BME280_humidity;BME280_pressure;Samples;Min_cycle;Max_cycle;Signal;HPM_P1;HPM_P2
2023/02/20 00:00:33;;;;;;;10.05;4.25;;;3.40;1.00;;;;;;6072790;23;20787;-75
2023/02/20 00:03:02;;;;;;;8.93;3.70;;;3.40;1.00;;;;;;6073927;23;20277;-79
2023/02/20 00:05:30;;;;;;;10.55;4.60;;;3.40;1.00;;;;;;6072185;23;20241;-76
2023/02/20 00:07:57;;;;;;;10.70;4.00;;;3.40;1.00;;;;;;6074746;23;20213;-76
2023/02/20 00:10:24;;;;;;;8.85;4.00;;;3.40;1.00;;;;;;6056323;23;20281;-77
2023/02/20 00:12:54;;;;;;;9.57;3.72;;;3.30;1.00;;;;;;6069898;23;21043;-76
2023/02/20 00:15:24;;;;;;;10.25;3.85;;;3.30;1.00;;;;;;6104647;23;20240;-76
2023/02/20 00:17:53;;;;;;;8.38;3.58;;;3.40;1.00;;;;;;6071124;23;20213;-78
2023/02/20 00:20:25;;;;;;;9.25;4.40;;;3.30;1.00;;;;;;6072087;23;20236;-81
2023/02/20 00:22:53;;;;;;;9.40;4.45;;;3.30;1.00;;;;;;6062261;23;20231;-76
2023/02/20 00:25:24;;;;;;;9.75;4.28;;;3.30;1.00;;;;;;6103185;23;20241;-76
2023/02/20 00:27:53;;;;;;;10.63;4.72;;;3.30;1.00;;;;;;6092982;23;20235;-77
2023/02/20 00:30:24;;;;;;;8.90;4.00;;;3.30;1.00;;;;;;6082556;23;20224;-77
2023/02/20 00:32:55;;;;;;;9.00;4.40;;;3.40;1.00;;;;;;6072507;23;20220;-77
2023/02/20 00:35:26;;;;;;;11.55;4.75;;;3.30;1.00;;;;;;6116540;23;20281;-78
2023/02/20 00:37:54;;;;;;;14.45;5.97;;;3.40;1.00;;;;;;6076599;23;20221;-77
2023/02/20 00:40:24;;;;;;;9.98;4.85;;;3.30;1.00;;;;;;6076197;23;20276;-77
2023/02/20 00:42:51;;;;;;;10.80;5.47;;;3.30;1.00;;;;;;6077328;23;20901;-76
2023/02/20 00:45:20;;;;;;;10.27;4.65;;;3.30;1.00;;;;;;6072154;23;20239;-77
2023/02/20 00:47:53;;;;;;;11.75;5.70;;;3.20;1.00;;;;;;6074332;23;20220;-76
2023/02/20 00:50:22;;;;;;;13.23;4.65;;;3.20;1.00;;;;;;6095092;23;20272;-76
2023/02/20 00:52:52;;;;;;;9.73;4.40;;;3.20;1.00;;;;;;6105986;23;20221;-78
2023/02/20 00:55:20;;;;;;;12.77;5.40;;;3.10;1.00;;;;;;6072544;23;20220;-76
2023/02/20 00:57:49;;;;;;;10.88;4.72;;;3.10;1.00;;;;;;6083108;23;20209;-79
2023/02/20 01:00:26;;;;;;;12.63;6.20;;;3.10;1.00;;;;;;6073521;23;20259;-79
2023/02/20 01:02:53;;;;;;;11.77;4.95;;;3.10;1.00;;;;;;6100762;23;20227;-76
2023/02/20 01:05:21;;;;;;;10.95;5.35;;;3.00;1.00;;;;;;6101631;23;21003;-77
2023/02/20 01:07:49;;;;;;;12.75;5.60;;;3.00;1.00;;;;;;6102170;23;20223;-78
2023/02/20 01:10:19;;;;;;;12.13;5.47;;;2.90;1.00;;;;;;6101461;23;20216;-78
2023/02/20 01:12:47;;;;;;;9.95;4.90;;;2.80;1.00;;;;;;6121264;23;20207;-80
2023/02/20 01:15:16;;;;;;;11.15;4.90;;;2.80;1.00;;;;;;6119366;23;20217;-78
2023/02/20 01:17:43;;;;;;;11.32;5.70;;;2.80;1.00;;;;;;6104080;23;20240;-78
2023/02/20 01:20:13;;;;;;;12.18;5.18;;;2.90;1.00;;;;;;6118932;23;20244;-81
2023/02/20 01:22:42;;;;;;;10.75;5.20;;;3.00;1.00;;;;;;6118015;23;20253;-77
2023/02/20 01:25:13;;;;;;;12.05;5.18;;;3.00;1.00;;;;;;6093286;23;20220;-78
2023/02/20 01:27:44;;;;;;;11.35;5.78;;;3.10;1.00;;;;;;6106360;23;20227;-82
2023/02/20 01:30:13;;;;;;;9.95;5.40;;;3.00;1.00;;;;;;6141349;23;20201;-81
2023/02/20 01:32:43;;;;;;;11.00;4.55;;;3.10;1.00;;;;;;6115022;23;20232;-80
2023/02/20 01:35:13;;;;;;;12.68;5.90;;;3.10;1.00;;;;;;6116179;23;20216;-80
2023/02/20 01:37:54;;;;;;;11.07;5.20;;;3.10;1.00;;;;;;6115236;23;20219;-81
2023/02/20 01:40:33;;;;;;;10.32;5.15;;;3.20;1.00;;;;;;6116995;23;20208;-79
2023/02/20 01:43:02;;;;;;;10.88;4.95;;;3.20;1.00;;;;;;6105956;23;20204;-80
2023/02/20 01:45:46;;;;;;;10.95;5.50;;;3.20;1.00;;;;;;6116332;23;20216;-81
2023/02/20 01:48:23;;;;;;;12.10;6.13;;;3.20;1.00;;;;;;6106747;23;20220;-80
2023/02/20 01:51:04;;;;;;;11.10;5.55;;;3.30;1.00;;;;;;6112615;23;20240;-80
2023/02/20 01:53:33;;;;;;;12.68;6.20;;;3.30;1.00;;;;;;6114771;23;20206;-79
2023/02/20 01:56:16;;;;;;;11.32;6.53;;;3.40;1.00;;;;;;6115179;23;20222;-82
2023/02/20 01:58:52;;;;;;;13.13;5.00;;;3.40;1.00;;;;;;6134381;23;20202;-82
2023/02/20 02:01:22;;;;;;;9.75;5.32;;;3.40;1.00;;;;;;6136025;23;20238;-79
2023/02/20 02:03:56;;;;;;;11.73;5.75;;;3.40;1.00;;;;;;6115415;23;20192;-80
2023/02/20 02:06:24;;;;;;;12.98;6.10;;;3.40;1.00;;;;;;6115731;23;20208;-80
2023/02/20 02:08:58;;;;;;;12.05;5.55;;;3.40;1.00;;;;;;6116450;23;20223;-80
2023/02/20 02:11:35;;;;;;;11.95;5.63;;;3.40;1.00;;;;;;6116276;23;20215;-80
2023/02/20 02:14:03;;;;;;;11.45;5.97;;;3.40;1.00;;;;;;6118714;23;20191;-81
2023/02/20 02:16:52;;;;;;;13.27;5.47;;;3.40;1.00;;;;;;6131287;23;20218;-80
2023/02/20 02:19:53;;;;;;;13.15;5.93;;;3.40;1.00;;;;;;6127789;23;21023;-80
2023/02/20 02:22:52;;;;;;;14.98;5.63;;;3.40;1.00;;;;;;6086502;23;20215;-80
2023/02/20 02:25:39;;;;;;;12.45;5.85;;;3.30;1.00;;;;;;6121380;23;20234;-82
2023/02/20 02:28:39;;;;;;;10.55;5.97;;;3.40;1.00;;;;;;6111858;23;20248;-82
2023/02/20 02:31:46;;;;;;;16.35;6.05;;;3.50;1.00;;;;;;6099902;23;20218;-81
2023/02/20 02:34:46;;;;;;;11.15;6.20;;;3.50;1.00;;;;;;6098298;23;20216;-81
2023/02/20 02:37:20;;;;;;;11.05;4.55;;;3.60;1.00;;;;;;6082757;23;20211;-81
2023/02/20 02:40:00;;;;;;;11.90;5.85;;;3.70;1.00;;;;;;6121587;23;20238;-80
2023/02/20 02:42:35;;;;;;;10.70;5.63;;;3.70;1.00;;;;;;6085789;23;20217;-81
2023/02/20 02:45:20;;;;;;;13.07;5.20;;;3.70;1.00;;;;;;6085956;23;20208;-81
2023/02/20 02:47:56;;;;;;;9.68;4.90;;;3.70;1.00;;;;;;6103460;23;20272;-80
2023/02/20 02:50:33;;;;;;;10.55;5.00;;;3.80;1.00;;;;;;6087925;23;20249;-79
2023/02/20 02:53:05;;;;;;;10.73;4.63;;;3.80;1.00;;;;;;6083583;23;20216;-77
2023/02/20 02:55:33;;;;;;;13.20;5.82;;;3.90;1.00;;;;;;6084588;23;20232;-80
2023/02/20 02:58:10;;;;;;;9.75;4.60;;;3.90;1.00;;;;;;6143940;23;20205;-80
2023/02/20 03:00:46;;;;;;;11.18;4.80;;;3.90;1.00;;;;;;6075526;23;20224;-77
2023/02/20 03:03:26;;;;;;;11.02;5.97;;;4.00;1.00;;;;;;6121552;23;20217;-80
2023/02/20 03:06:05;;;;;;;11.73;6.50;;;4.00;1.00;;;;;;6064932;23;20247;-79
2023/02/20 03:08:43;;;;;;;12.80;6.32;;;4.00;1.00;;;;;;6078344;23;20204;-78
2023/02/20 03:11:20;;;;;;;12.60;6.03;;;4.10;1.00;;;;;;6084486;23;20248;-78
2023/02/20 03:16:46;;;;;;;12.82;5.55;;;4.20;1.00;;;;;;6095077;23;20286;-77
2023/02/20 03:19:16;;;;;;;11.63;5.95;;;4.30;1.00;;;;;;6085047;23;21025;-77
2023/02/20 03:21:59;;;;;;;11.68;5.82;;;4.40;1.00;;;;;;6085654;23;20221;-77
2023/02/20 03:43:24;;;;;;;13.15;7.25;;;4.70;1.00;;;;;;6137420;23;20211;-77
2023/02/20 03:45:57;;;;;;;12.20;6.85;;;4.70;1.00;;;;;;6164031;23;20593;-77
2023/02/20 03:48:34;;;;;;;12.15;6.47;;;4.80;1.00;;;;;;6161480;23;20744;-77
2023/02/20 03:53:47;;;;;;;13.55;6.80;;;4.80;1.00;;;;;;6162892;23;21008;-76
2023/02/20 03:56:19;;;;;;;12.23;6.45;;;4.80;1.00;;;;;;6164751;23;20756;-76
2023/02/20 03:58:52;;;;;;;12.80;6.65;;;4.80;1.00;;;;;;6161978;23;20238;-77
2023/02/20 04:01:23;;;;;;;11.25;6.15;;;4.90;1.00;;;;;;6164738;23;20218;-76
2023/02/20 04:03:52;;;;;;;14.15;6.70;;;4.90;1.00;;;;;;6163251;23;20263;-76
2023/02/20 04:06:21;;;;;;;11.73;6.28;;;5.00;1.00;;;;;;6164463;23;20207;-77
2023/02/20 04:08:59;;;;;;;13.18;6.95;;;5.10;1.00;;;;;;6126553;23;20286;-76
2023/02/20 04:11:33;;;;;;;12.40;7.00;;;5.10;1.00;;;;;;6163324;23;20277;-76
2023/02/20 04:14:02;;;;;;;12.45;6.43;;;5.10;1.00;;;;;;6158551;23;20293;-76
2023/02/20 04:16:34;;;;;;;12.57;6.00;;;5.20;1.00;;;;;;6154671;23;20218;-77
2023/02/20 04:19:03;;;;;;;11.27;6.53;;;5.20;1.00;;;;;;6156330;23;20238;-76
2023/02/20 04:21:41;;;;;;;13.13;7.07;;;5.30;1.00;;;;;;6168819;23;20332;-77
2023/02/20 04:24:13;;;;;;;12.77;6.53;;;5.30;1.00;;;;;;6153600;23;20219;-77
2023/02/20 04:26:42;;;;;;;13.50;7.43;;;5.30;1.00;;;;;;6163584;23;20719;-77
2023/02/20 04:29:09;;;;;;;16.15;6.90;;;5.30;1.00;;;;;;6163730;23;20682;-77
2023/02/20 04:31:37;;;;;;;14.15;7.53;;;5.30;1.00;;;;;;6150976;23;21117;-76
2023/02/20 04:34:04;;;;;;;15.18;7.90;;;5.30;1.00;;;;;;6184066;23;20686;-76
2023/02/20 04:36:32;;;;;;;13.50;7.03;;;5.40;1.00;;;;;;6160815;23;20214;-78
2023/02/20 04:38:59;;;;;;;13.18;6.63;;;5.40;1.00;;;;;;6163474;23;20561;-78
2023/02/20 04:41:27;;;;;;;16.20;9.75;;;5.40;1.00;;;;;;6161375;23;20211;-75
2023/02/20 04:44:29;;;;;;;13.25;7.03;;;5.40;1.00;;;;;;6164084;23;20893;-79
2023/02/20 04:46:43;;;;;;;13.00;7.50;;;5.40;1.00;;;;;;6152436;23;20245;-76
2023/02/20 04:49:10;;;;;;;14.15;8.13;;;5.40;1.00;;;;;;6158013;23;20963;-79
2023/02/20 04:51:38;;;;;;;12.63;7.03;;;5.50;1.00;;;;;;6166805;23;20229;-80
2023/02/20 04:54:07;;;;;;;12.55;7.40;;;5.50;1.00;;;;;;6166252;23;20219;-77
2023/02/20 04:56:55;;;;;;;11.82;7.20;;;5.50;1.00;;;;;;6175693;23;20211;-82
2023/02/20 04:59:37;;;;;;;13.45;8.27;;;5.50;1.00;;;;;;6185152;23;20218;-79
2023/02/20 05:02:07;;;;;;;12.20;6.75;;;5.50;1.00;;;;;;6178180;23;20203;-81
2023/02/20 05:04:37;;;;;;;14.38;9.13;;;5.50;1.00;;;;;;6175548;23;20242;-80
2023/02/20 05:07:07;;;;;;;12.60;6.85;;;5.60;1.00;;;;;;6177407;23;20206;-80
2023/02/20 05:09:36;;;;;;;17.05;8.35;;;5.60;1.00;;;;;;6175964;23;20357;-79
2023/02/20 05:12:08;;;;;;;12.85;7.25;;;5.60;1.00;;;;;;6184143;23;20211;-81
2023/02/20 05:14:37;;;;;;;13.63;7.50;;;5.60;1.00;;;;;;6148514;23;20234;-78
2023/02/20 05:17:15;;;;;;;12.98;7.30;;;5.60;1.00;;;;;;6173313;23;20215;-76
2023/02/20 05:19:50;;;;;;;13.57;7.68;;;5.70;1.00;;;;;;6174531;23;20214;-77
2023/02/20 05:22:18;;;;;;;13.25;7.47;;;5.70;1.00;;;;;;6174726;23;20207;-77
2023/02/20 05:24:48;;;;;;;14.07;7.50;;;5.70;1.00;;;;;;6174121;23;20976;-76
2023/02/20 05:27:22;;;;;;;13.23;7.40;;;5.80;1.00;;;;;;6182930;23;20218;-78
2023/02/20 05:29:55;;;;;;;13.32;7.88;;;5.80;1.00;;;;;;6173893;23;20314;-78
2023/02/20 05:32:36;;;;;;;11.60;7.88;;;5.70;1.00;;;;;;6173729;23;20239;-79
2023/02/20 05:35:06;;;;;;;13.80;7.28;;;5.70;1.00;;;;;;6172568;23;20262;-77
2023/02/20 05:37:39;;;;;;;13.15;7.35;;;5.70;1.00;;;;;;6176182;23;20217;-78
2023/02/20 05:40:10;;;;;;;14.30;7.95;;;5.70;1.00;;;;;;6166350;23;20217;-76
2023/02/20 05:42:46;;;;;;;14.93;9.30;;;5.70;1.00;;;;;;6174524;23;20258;-80
2023/02/20 05:45:17;;;;;;;14.50;7.65;;;5.60;1.00;;;;;;6173580;23;20214;-78
2023/02/20 05:47:56;;;;;;;13.30;7.82;;;5.60;1.00;;;;;;6174500;23;20222;-77
2023/02/20 05:50:28;;;;;;;48.30;34.30;;;5.60;1.00;;;;;;6184390;23;20220;-79
2023/02/20 05:53:10;;;;;;;15.65;8.98;;;5.70;1.00;;;;;;6178204;23;20226;-80
2023/02/20 05:55:37;;;;;;;13.15;8.07;;;5.60;1.00;;;;;;6176947;23;20278;-83
2023/02/20 05:58:08;;;;;;;15.25;8.13;;;5.60;1.00;;;;;;6179360;23;20271;-81
2023/02/20 06:00:38;;;;;;;17.38;9.00;;;5.60;1.00;;;;;;6179222;23;20242;-80
2023/02/20 06:03:15;;;;;;;14.02;8.02;;;5.60;1.00;;;;;;6179550;23;20282;-81
2023/02/20 06:05:50;;;;;;;13.80;7.78;;;5.60;1.00;;;;;;6165453;23;20210;-80
2023/02/20 06:08:20;;;;;;;15.25;8.75;;;5.60;1.00;;;;;;6176034;23;20213;-80
2023/02/20 06:10:49;;;;;;;15.00;8.60;;;5.60;1.00;;;;;;6163004;23;20215;-79
2023/02/20 06:13:18;;;;;;;14.77;8.55;;;5.60;1.00;;;;;;6177660;23;20198;-80
2023/02/20 06:15:48;;;;;;;14.45;7.88;;;5.60;1.00;;;;;;6182038;23;21412;-80
2023/02/20 06:18:17;;;;;;;13.15;7.70;;;5.60;1.00;;;;;;6189651;23;20226;-81
2023/02/20 06:20:57;;;;;;;15.40;8.60;;;5.60;1.00;;;;;;6175211;23;20219;-80
2023/02/20 06:23:35;;;;;;;15.60;9.15;;;5.60;1.00;;;;;;6175482;23;20222;-79
2023/02/20 06:26:10;;;;;;;16.35;9.52;;;5.60;1.00;;;;;;6189925;23;20218;-82
2023/02/20 06:28:39;;;;;;;13.80;8.32;;;5.60;1.00;;;;;;6164232;23;20216;-81
2023/02/20 06:31:10;;;;;;;12.43;7.47;;;5.60;1.00;;;;;;6155903;23;20217;-82
2023/02/20 06:33:37;;;;;;;13.40;8.30;;;5.70;1.00;;;;;;6179220;23;20206;-81
2023/02/20 06:36:18;;;;;;;14.40;9.23;;;5.70;1.00;;;;;;6162718;23;20215;-77
2023/02/20 06:38:48;;;;;;;14.15;8.75;;;5.70;1.00;;;;;;6170775;23;20214;-77
2023/02/20 06:41:18;;;;;;;15.10;8.80;;;5.70;1.00;;;;;;6178186;23;20261;-77
2023/02/20 06:43:52;;;;;;;17.13;10.10;;;5.80;1.00;;;;;;6169359;23;20192;-81
2023/02/20 06:46:24;;;;;;;28.60;10.80;;;5.80;1.00;;;;;;6171632;23;20210;-77
2023/02/20 06:48:59;;;;;;;16.00;10.18;;;5.90;1.00;;;;;;6132602;23;20215;-77
2023/02/20 06:51:30;;;;;;;16.60;9.20;;;5.90;1.00;;;;;;6174505;23;20270;-78
2023/02/20 06:53:57;;;;;;;16.05;9.85;;;5.90;1.00;;;;;;6167279;23;20214;-76
2023/02/20 06:56:27;;;;;;;16.30;10.20;;;5.90;1.00;;;;;;6174250;23;20207;-79
2023/02/20 06:59:00;;;;;;;17.40;10.65;;;5.80;1.00;;;;;;6172083;23;20238;-79
2023/02/20 07:01:29;;;;;;;17.10;10.23;;;5.90;1.00;;;;;;6154467;23;20214;-78
2023/02/20 07:03:58;;;;;;;18.10;11.50;;;5.80;1.00;;;;;;6172121;23;20215;-77
2023/02/20 07:06:27;;;;;;;16.15;10.63;;;5.80;1.00;;;;;;6170924;23;20211;-78
2023/02/20 07:08:57;;;;;;;18.13;11.65;;;5.80;1.00;;;;;;6171525;23;20266;-79
2023/02/20 07:11:27;;;;;;;19.35;12.65;;;5.90;1.00;;;;;;6174746;23;20214;-79
2023/02/20 07:13:58;;;;;;;17.48;10.98;;;5.90;1.00;;;;;;6175648;23;20207;-77
2023/02/20 07:16:30;;;;;;;18.48;11.63;;;5.90;1.00;;;;;;6146239;23;20211;-79
2023/02/20 07:18:58;;;;;;;18.50;12.07;;;5.90;1.00;;;;;;6136656;23;20250;-78
2023/02/20 07:24:40;;;;;;;19.48;11.10;;;6.00;1.00;;;;;;6147262;23;20910;-78
2023/02/20 07:27:09;;;;;;;19.30;11.55;;;6.00;1.00;;;;;;6170173;23;20233;-77
2023/02/20 07:29:44;;;;;;;18.38;12.30;;;6.00;1.00;;;;;;6154792;23;20222;-81
2023/02/20 07:32:22;;;;;;;17.75;10.93;;;6.10;1.00;;;;;;6173972;23;20206;-82
2023/02/20 07:34:50;;;;;;;16.45;11.18;;;6.10;1.00;;;;;;6153340;23;20224;-78
2023/02/20 07:37:24;;;;;;;19.98;12.68;;;6.10;1.00;;;;;;6160484;23;20299;-79
2023/02/20 07:39:58;;;;;;;16.70;10.70;;;6.10;1.00;;;;;;6157384;23;20251;-79
2023/02/20 07:42:27;;;;;;;17.77;11.50;;;6.20;1.00;;;;;;6169823;23;20210;-80
2023/02/20 07:45:00;;;;;;;17.58;11.38;;;6.20;1.00;;;;;;6174982;23;20210;-78
2023/02/20 07:47:28;;;;;;;17.50;10.05;;;6.30;1.00;;;;;;6175531;23;20211;-80
2023/02/20 07:50:00;;;;;;;16.08;11.57;;;6.30;1.00;;;;;;6185105;23;20195;-81
2023/02/20 07:52:30;;;;;;;15.10;10.05;;;6.30;1.00;;;;;;6160027;23;20250;-79
2023/02/20 07:54:58;;;;;;;19.52;10.30;;;6.40;1.00;;;;;;6195025;23;20233;-80
2023/02/20 07:57:28;;;;;;;16.08;8.80;;;6.40;1.00;;;;;;6164862;23;20204;-79
2023/02/20 07:59:58;;;;;;;16.25;9.27;;;6.40;1.00;;;;;;6155184;23;20223;-76
2023/02/20 08:02:25;;;;;;;15.80;9.70;;;6.50;1.00;;;;;;6161114;23;20301;-76
2023/02/20 08:04:57;;;;;;;18.23;11.05;;;6.50;1.00;;;;;;6160016;23;20992;-76
2023/02/20 08:07:26;;;;;;;15.73;10.05;;;6.60;1.00;;;;;;6150321;23;20247;-78
2023/02/20 08:09:53;;;;;;;14.07;9.27;;;6.60;1.00;;;;;;6136139;23;20227;-78
2023/02/20 08:12:20;;;;;;;15.30;9.85;;;6.70;1.00;;;;;;6161835;23;20242;-77
2023/02/20 08:14:51;;;;;;;12.40;8.85;;;6.80;1.00;;;;;;6161780;23;20224;-77
2023/02/20 08:17:20;;;;;;;14.95;9.00;;;6.90;1.00;;;;;;6163733;23;20608;-77
2023/02/20 08:19:47;;;;;;;14.07;9.10;;;6.90;1.00;;;;;;6135530;23;20292;-77
2023/02/20 08:22:15;;;;;;;13.70;8.90;;;7.00;1.00;;;;;;6165252;23;20324;-80
2023/02/20 08:24:42;;;;;;;13.93;8.88;;;7.00;1.00;;;;;;6157953;23;20218;-78
2023/02/20 08:27:10;;;;;;;13.25;8.60;;;7.00;1.00;;;;;;6163076;23;20327;-77
2023/02/20 08:29:37;;;;;;;14.38;8.77;;;7.10;1.00;;;;;;6162513;23;20244;-77
2023/02/20 08:32:05;;;;;;;14.00;8.82;;;7.10;1.00;;;;;;6164014;23;20208;-79
2023/02/20 08:34:34;;;;;;;13.13;8.50;;;7.20;1.00;;;;;;6163924;23;20212;-75
2023/02/20 08:37:00;;;;;;;13.37;8.53;;;7.20;1.00;;;;;;6146958;23;20746;-78
2023/02/20 08:39:27;;;;;;;13.18;7.90;;;7.30;1.00;;;;;;6161437;23;20420;-78
2023/02/20 08:41:55;;;;;;;13.75;7.80;;;7.30;1.00;;;;;;6174579;23;20674;-80
2023/02/20 08:44:24;;;;;;;12.48;7.75;;;7.40;1.00;;;;;;6173655;23;20315;-79
2023/02/20 08:46:52;;;;;;;12.70;7.90;;;7.40;1.00;;;;;;6167457;23;20206;-78
2023/02/20 08:49:19;;;;;;;13.68;7.82;;;7.50;1.00;;;;;;6164723;23;20211;-78
2023/02/20 08:51:48;;;;;;;14.17;8.10;;;7.50;1.00;;;;;;6164467;23;20212;-79
2023/02/20 08:54:16;;;;;;;12.18;7.90;;;7.60;1.00;;;;;;6164382;23;20417;-78
2023/02/20 08:56:43;;;;;;;12.27;7.10;;;7.60;1.00;;;;;;6150473;23;20226;-78
2023/02/20 08:59:11;;;;;;;11.57;7.73;;;7.70;1.00;;;;;;6134152;23;20295;-76
2023/02/20 09:01:41;;;;;;;14.48;8.05;;;7.70;1.00;;;;;;6162047;23;20513;-78
2023/02/20 09:04:10;;;;;;;11.75;6.93;;;7.80;1.00;;;;;;6164139;23;20226;-78
2023/02/20 09:06:37;;;;;;;13.70;6.80;;;7.80;1.00;;;;;;6151133;23;20222;-79
2023/02/20 09:09:07;;;;;;;12.80;7.07;;;7.90;1.00;;;;;;6164851;23;20222;-77
2023/02/20 09:11:35;;;;;;;11.70;6.90;;;8.00;1.00;;;;;;6164066;23;20616;-79
2023/02/20 09:14:07;;;;;;;11.00;6.57;;;8.10;1.00;;;;;;6166828;23;20486;-79
2023/02/20 09:16:35;;;;;;;13.23;7.20;;;8.20;1.00;;;;;;6162742;23;20483;-78
2023/02/20 09:19:08;;;;;;;9.68;6.20;;;8.30;1.00;;;;;;6160890;23;20484;-77
2023/02/20 09:21:35;;;;;;;12.20;6.93;;;8.40;1.00;;;;;;6163795;23;20309;-77
2023/02/20 09:24:07;;;;;;;12.13;6.73;;;8.50;1.00;;;;;;6163734;23;20427;-79
2023/02/20 09:26:35;;;;;;;11.57;6.65;;;8.60;1.00;;;;;;6135020;23;20523;-77
2023/02/20 09:29:04;;;;;;;11.37;5.80;;;8.70;1.00;;;;;;6163346;23;21046;-76
2023/02/20 09:31:31;;;;;;;10.93;5.73;;;8.80;1.00;;;;;;6162500;23;21146;-76
2023/02/20 09:34:00;;;;;;;12.43;5.97;;;8.80;1.00;;;;;;6161328;23;20422;-77
2023/02/20 09:36:28;;;;;;;11.07;6.13;;;8.90;1.00;;;;;;6162442;23;20435;-79
2023/02/20 09:38:55;;;;;;;10.30;6.47;;;9.00;1.00;;;;;;6162228;23;20418;-78
2023/02/20 09:41:34;;;;;;;10.90;6.03;;;9.10;1.00;;;;;;6162194;23;20426;-77
2023/02/20 09:44:11;;;;;;;10.60;5.50;;;9.20;1.00;;;;;;6161063;23;20422;-77
2023/02/20 09:46:39;;;;;;;12.40;6.22;;;9.20;1.00;;;;;;6159601;23;20450;-76
2023/02/20 09:49:13;;;;;;;10.63;5.00;;;9.20;1.00;;;;;;6135895;23;20242;-77
2023/02/20 09:51:44;;;;;;;9.83;5.20;;;9.30;1.00;;;;;;6161958;23;20545;-76
2023/02/20 09:54:16;;;;;;;12.60;6.03;;;9.30;1.00;;;;;;6162101;23;20434;-78
2023/02/20 09:56:50;;;;;;;11.57;5.23;;;9.30;1.00;;;;;;6160087;23;21594;-77
2023/02/20 09:59:22;;;;;;;11.47;5.40;;;9.30;1.00;;;;;;6151606;23;20418;-76
2023/02/20 10:01:55;;;;;;;10.30;5.47;;;9.40;1.00;;;;;;6151304;23;20422;-79
2023/02/20 10:04:28;;;;;;;9.10;4.87;;;9.50;1.00;;;;;;6179067;23;20390;-78
2023/02/20 10:07:02;;;;;;;10.30;5.37;;;9.60;1.00;;;;;;6165385;23;20430;-78
2023/02/20 10:09:30;;;;;;;10.83;4.70;;;9.80;1.00;;;;;;6165958;23;20481;-78
2023/02/20 10:12:13;;;;;;;10.20;5.10;;;9.80;1.00;;;;;;6162116;23;20492;-77
2023/02/20 10:15:03;;;;;;;10.43;5.00;;;9.90;1.00;;;;;;6161087;23;20435;-79
2023/02/20 10:17:40;;;;;;;10.40;5.30;;;10.00;1.00;;;;;;6160409;23;20446;-77
2023/02/20 10:20:21;;;;;;;11.53;5.27;;;10.10;1.00;;;;;;6162174;23;20426;-77
2023/02/20 10:22:56;;;;;;;9.50;5.80;;;9.90;1.00;;;;;;6169508;23;20421;-76
2023/02/20 10:25:35;;;;;;;10.33;5.00;;;10.00;1.00;;;;;;6160498;23;20413;-80
2023/02/20 10:28:11;;;;;;;9.13;4.97;;;9.90;1.00;;;;;;6168964;23;20457;-78
2023/02/20 10:30:43;;;;;;;12.57;6.57;;;9.90;1.00;;;;;;6159758;23;20906;-77
2023/02/20 10:33:24;;;;;;;11.90;5.80;;;10.20;1.00;;;;;;6186497;23;20489;-76
2023/02/20 10:36:16;;;;;;;10.10;5.60;;;10.30;1.00;;;;;;6156705;23;20429;-79
2023/02/20 10:38:56;;;;;;;9.20;5.60;;;10.30;1.00;;;;;;6173487;23;20432;-76
2023/02/20 10:41:34;;;;;;;11.93;5.13;;;10.30;1.00;;;;;;6164574;23;20384;-78
2023/02/20 10:44:25;;;;;;;9.63;5.57;;;10.20;1.00;;;;;;6155499;23;20398;-77
2023/02/20 10:46:58;;;;;;;11.00;5.27;;;10.20;1.00;;;;;;6155246;23;20423;-77
2023/02/20 10:49:33;;;;;;;13.10;5.50;;;10.30;1.00;;;;;;6161743;23;20462;-76
2023/02/20 10:52:05;;;;;;;10.70;5.30;;;10.30;1.00;;;;;;6162676;23;20411;-76
2023/02/20 10:54:37;;;;;;;10.93;5.10;;;10.40;1.00;;;;;;6162015;23;20493;-76
2023/02/20 10:57:18;;;;;;;8.60;4.70;;;10.30;1.00;;;;;;6164052;23;20458;-77
2023/02/20 10:59:54;;;;;;;9.97;4.90;;;10.30;1.00;;;;;;6161950;23;20430;-80
2023/02/20 11:02:28;;;;;;;11.27;5.37;;;10.30;1.00;;;;;;6162786;23;20410;-79
2023/02/20 11:05:03;;;;;;;11.63;5.40;;;10.30;1.00;;;;;;6162000;23;20840;-80
2023/02/20 11:07:37;;;;;;;10.97;5.60;;;10.30;1.00;;;;;;6145317;23;20473;-78
2023/02/20 11:10:14;;;;;;;10.20;5.10;;;10.40;1.00;;;;;;6170289;23;21153;-80
2023/02/20 11:12:45;;;;;;;10.43;5.00;;;10.40;1.00;;;;;;6161692;23;20421;-77
2023/02/20 11:15:16;;;;;;;9.87;4.93;;;10.40;1.00;;;;;;6137275;23;20422;-77
2023/02/20 11:17:48;;;;;;;11.83;5.07;;;10.40;1.00;;;;;;6159366;23;20453;-77
2023/02/20 11:20:52;;;;;;;11.67;5.53;;;10.30;1.00;;;;;;6163120;23;20450;-76
2023/02/20 11:23:41;;;;;;;10.43;5.33;;;10.30;1.00;;;;;;6156898;23;20914;-77
2023/02/20 11:26:30;;;;;;;10.77;5.10;;;10.20;1.00;;;;;;6161340;23;21216;-77
2023/02/20 11:29:00;;;;;;;10.63;4.90;;;10.30;1.00;;;;;;6155826;23;20427;-76
2023/02/20 11:31:29;;;;;;;13.00;7.83;;;10.30;1.00;;;;;;6155647;23;20429;-77
2023/02/20 11:34:04;;;;;;;11.07;5.80;;;10.40;1.00;;;;;;6172669;23;20422;-77
2023/02/20 11:36:37;;;;;;;10.40;5.70;;;10.40;1.00;;;;;;6160638;23;20474;-77
2023/02/20 11:39:20;;;;;;;9.80;5.50;;;10.40;1.00;;;;;;6162705;23;20478;-77
2023/02/20 11:41:50;;;;;;;11.37;5.63;;;10.40;1.00;;;;;;6149665;23;20437;-76
2023/02/20 11:44:27;;;;;;;10.27;5.40;;;10.50;1.00;;;;;;6150954;23;20512;-77
2023/02/20 11:47:27;;;;;;;11.47;6.03;;;10.40;1.00;;;;;;6152317;23;20418;-78
2023/02/20 11:50:14;;;;;;;11.10;5.43;;;10.40;1.00;;;;;;6172951;23;20431;-77
2023/02/20 11:53:01;;;;;;;12.97;5.80;;;10.50;1.00;;;;;;6148856;23;20434;-77
2023/02/20 11:55:29;;;;;;;11.20;5.23;;;10.50;1.00;;;;;;6171165;23;20418;-79
2023/02/20 11:58:02;;;;;;;12.03;6.80;;;10.50;1.00;;;;;;6147369;23;20453;-78
2023/02/20 12:00:45;;;;;;;10.30;5.50;;;10.60;1.00;;;;;;6172771;23;20482;-77
2023/02/20 12:03:28;;;;;;;16.17;7.43;;;10.60;1.00;;;;;;6157965;23;20410;-77
2023/02/20 12:06:00;;;;;;;10.77;5.53;;;10.50;1.00;;;;;;6168507;23;20402;-76
2023/02/20 12:08:52;;;;;;;9.93;6.50;;;10.50;1.00;;;;;;6153765;23;20476;-79
2023/02/20 12:11:27;;;;;;;10.47;5.70;;;10.50;1.00;;;;;;6167233;23;20430;-78
2023/02/20 12:14:01;;;;;;;12.70;7.00;;;10.50;1.00;;;;;;6184420;23;20429;-79
2023/02/20 12:16:46;;;;;;;11.40;7.00;;;10.50;1.00;;;;;;6181280;23;20416;-77
2023/02/20 12:19:37;;;;;;;12.33;6.63;;;10.50;1.00;;;;;;6152443;23;20956;-80
2023/02/20 12:22:20;;;;;;;15.97;7.13;;;10.60;1.00;;;;;;6170153;23;20417;-82
2023/02/20 12:25:08;;;;;;;10.20;6.77;;;10.70;1.00;;;;;;6139856;23;20431;-80
2023/02/20 12:28:07;;;;;;;13.30;7.00;;;10.80;1.00;;;;;;6167473;23;20417;-79
2023/02/20 12:31:14;;;;;;;14.03;7.87;;;10.80;1.00;;;;;;6179692;23;20423;-79
2023/02/20 12:34:27;;;;;;;12.93;7.77;;;10.80;1.00;;;;;;6164954;23;20394;-78
2023/02/20 12:37:09;;;;;;;12.97;7.77;;;10.80;1.00;;;;;;6154686;23;20464;-80
2023/02/20 12:39:58;;;;;;;12.23;7.80;;;10.70;1.00;;;;;;6143136;23;20419;-78
2023/02/20 12:42:36;;;;;;;11.13;7.67;;;10.80;1.00;;;;;;6151337;23;20391;-78
2023/02/20 12:45:26;;;;;;;15.27;7.90;;;10.80;1.00;;;;;;6157072;23;21173;-79
2023/02/20 12:48:16;;;;;;;15.50;8.70;;;10.70;1.00;;;;;;6174800;23;20427;-79
2023/02/20 12:51:00;;;;;;;15.13;9.10;;;10.80;1.00;;;;;;6160192;23;20468;-78
2023/02/20 12:53:49;;;;;;;13.13;8.17;;;10.70;1.00;;;;;;6149355;23;20430;-81
2023/02/20 12:56:41;;;;;;;15.00;9.43;;;10.70;1.00;;;;;;6160927;23;20399;-79
2023/02/20 12:59:23;;;;;;;13.70;8.00;;;10.70;1.00;;;;;;6165962;23;20435;-79
2023/02/20 13:01:56;;;;;;;14.10;8.83;;;10.70;1.00;;;;;;6153301;23;20411;-79
2023/02/20 13:04:36;;;;;;;13.90;9.60;;;10.60;1.00;;;;;;6144466;23;20413;-79
2023/02/20 13:07:29;;;;;;;15.23;9.43;;;10.50;1.00;;;;;;6161408;23;20933;-80
2023/02/20 13:10:06;;;;;;;15.40;10.53;;;10.50;1.00;;;;;;6157933;23;20570;-80
2023/02/20 13:12:34;;;;;;;17.57;10.43;;;10.50;1.00;;;;;;6151733;23;20422;-78
2023/02/20 13:15:16;;;;;;;18.10;12.00;;;10.40;1.00;;;;;;6165907;23;20435;-78
2023/02/20 13:17:52;;;;;;;15.93;10.80;;;10.30;1.00;;;;;;6160525;23;20517;-77
2023/02/20 13:20:22;;;;;;;21.20;11.43;;;10.20;1.00;;;;;;6154385;23;20929;-78
2023/02/20 13:23:03;;;;;;;16.00;11.63;;;10.10;1.00;;;;;;6164780;23;20462;-79
2023/02/20 13:25:43;;;;;;;16.97;12.90;;;10.10;1.00;;;;;;6151509;23;20435;-78
2023/02/20 13:28:36;;;;;;;19.47;11.80;;;10.00;1.00;;;;;;6170504;23;20393;-78
2023/02/20 13:31:15;;;;;;;18.53;11.90;;;10.00;1.00;;;;;;6166919;23;20434;-79
2023/02/20 13:33:51;;;;;;;19.43;12.63;;;10.10;1.00;;;;;;6166548;23;21212;-82
2023/02/20 13:36:41;;;;;;;20.83;12.97;;;10.00;1.00;;;;;;6141855;23;20486;-77
2023/02/20 13:39:37;;;;;;;18.77;12.30;;;9.90;1.00;;;;;;6167710;23;20486;-77
2023/02/20 13:42:26;;;;;;;18.43;13.03;;;9.80;1.00;;;;;;6175451;23;20431;-78
2023/02/20 13:44:59;;;;;;;18.90;13.00;;;9.80;1.00;;;;;;6167291;23;20482;-79
2023/02/20 13:47:39;;;;;;;17.83;12.00;;;9.70;1.00;;;;;;6144860;23;20426;-80
2023/02/20 13:50:33;;;;;;;20.03;13.30;;;9.70;1.00;;;;;;6169431;23;20415;-79
2023/02/20 13:53:05;;;;;;;22.33;13.00;;;9.60;1.00;;;;;;6167683;23;20515;-78
2023/02/20 13:55:38;;;;;;;19.70;14.47;;;9.60;1.00;;;;;;6167537;23;20421;-79
2023/02/20 13:58:14;;;;;;;22.27;12.57;;;9.60;1.00;;;;;;6161744;23;20390;-81